createdAt,value
2022-12-23T00:00:31.437Z,1.30
2022-12-23T00:08:16.079Z,2.70
2022-12-23T00:10:44.640Z,1.90
2022-12-23T00:13:12.932Z,1.60
2022-12-23T00:15:41.138Z,1.60
2022-12-23T00:18:09.737Z,2.30
2022-12-23T00:20:37.856Z,2.10
2022-12-23T00:23:06.724Z,2.20
2022-12-23T00:25:37.223Z,0.90
2022-12-23T00:28:05.496Z,1.90
2022-12-23T00:30:33.735Z,2.80
2022-12-23T00:33:01.878Z,3.00
2022-12-23T00:35:31.610Z,2.40
2022-12-23T00:37:59.788Z,2.60
2022-12-23T00:40:28.531Z,1.50
2022-12-23T00:42:56.782Z,2.60
2022-12-23T00:45:24.968Z,2.60
2022-12-23T00:47:53.763Z,2.30
2022-12-23T00:50:22.646Z,3.60
2022-12-23T00:52:50.860Z,2.10
2022-12-23T00:55:19.645Z,1.80
2022-12-23T00:57:47.861Z,2.40
2022-12-23T01:00:16.832Z,1.50
2022-12-23T01:02:45.391Z,1.90
2022-12-23T01:05:13.548Z,1.90
2022-12-23T01:07:41.680Z,2.40
2022-12-23T01:10:10.354Z,3.50
2022-12-23T01:12:38.695Z,2.30
2022-12-23T01:15:07.609Z,3.20
2022-12-23T01:17:36.174Z,2.70
2022-12-23T01:20:04.951Z,2.20
2022-12-23T01:22:33.209Z,3.30
2022-12-23T01:25:01.600Z,0.80
2022-12-23T01:27:29.764Z,2.10
2022-12-23T01:29:57.879Z,1.50
2022-12-23T01:32:26.272Z,2.50
2022-12-23T01:34:54.459Z,3.40
2022-12-23T01:37:23.072Z,2.00
2022-12-23T01:39:51.301Z,2.40
2022-12-23T01:42:21.209Z,3.60
2022-12-23T01:45:01.669Z,3.20
2022-12-23T01:47:49.911Z,3.20
2022-12-23T01:50:38.239Z,4.00
2022-12-23T01:53:11.969Z,3.30
2022-12-23T01:55:49.754Z,3.10
2022-12-23T02:01:07.516Z,2.50
2022-12-23T02:03:36.797Z,2.90
2022-12-23T02:06:05.405Z,4.00
2022-12-23T02:08:33.666Z,4.40
2022-12-23T02:11:18.882Z,3.20
2022-12-23T02:14:03.585Z,3.70
2022-12-23T02:16:37.999Z,3.40
2022-12-23T02:19:22.918Z,2.40
2022-12-23T02:22:28.453Z,5.60
2022-12-23T02:25:38.259Z,3.60
2022-12-23T02:28:21.278Z,4.50
2022-12-23T02:30:59.985Z,3.30
2022-12-23T02:33:33.727Z,3.10
2022-12-23T02:36:17.401Z,5.90
2022-12-23T02:38:49.994Z,4.50
2022-12-23T02:41:30.505Z,5.00
2022-12-23T02:44:44.575Z,8.40
2022-12-23T02:47:22.011Z,5.00
2022-12-23T02:49:57.362Z,8.80
2022-12-23T02:52:32.135Z,4.80
2022-12-23T02:55:12.556Z,3.30
2022-12-23T02:57:47.463Z,4.70
2022-12-23T03:00:16.852Z,5.20
2022-12-23T03:02:45.447Z,2.10
2022-12-23T03:05:34.860Z,3.80
2022-12-23T03:08:06.223Z,2.00
2022-12-23T03:10:47.474Z,3.10
2022-12-23T03:13:33.049Z,2.50
2022-12-23T03:16:19.764Z,1.70
2022-12-23T03:19:08.078Z,2.50
2022-12-23T03:24:41.761Z,2.40
2022-12-23T03:27:25.265Z,2.00
2022-12-23T03:30:04.597Z,2.00
2022-12-23T03:32:39.852Z,2.50
2022-12-23T03:35:12.915Z,2.00
2022-12-23T03:37:46.033Z,3.90
2022-12-23T03:40:21.647Z,2.60
2022-12-23T03:42:56.980Z,4.70
2022-12-23T03:45:40.339Z,5.50
2022-12-23T03:48:27.171Z,1.70
2022-12-23T03:51:04.831Z,3.40
2022-12-23T03:53:39.456Z,2.80
2022-12-23T03:56:25.067Z,3.20
2022-12-23T03:58:56.816Z,4.00
2022-12-23T04:01:37.707Z,3.60
2022-12-23T04:04:16.053Z,2.60
2022-12-23T04:06:51.283Z,3.40
2022-12-23T04:09:22.549Z,2.60
2022-12-23T04:11:51.842Z,2.70
2022-12-23T04:14:22.424Z,1.70
2022-12-23T04:16:56.540Z,2.30
2022-12-23T04:19:25.395Z,2.60
2022-12-23T04:21:56.491Z,1.70
2022-12-23T04:24:24.590Z,4.10
2022-12-23T04:26:52.832Z,1.80
2022-12-23T04:29:21.029Z,2.50
2022-12-23T04:31:49.321Z,1.80
2022-12-23T04:34:17.965Z,4.90
2022-12-23T04:36:46.294Z,2.60
2022-12-23T04:39:14.391Z,4.20
2022-12-23T04:41:42.745Z,2.90
2022-12-23T04:44:10.925Z,2.60
2022-12-23T04:46:39.173Z,3.00
2022-12-23T04:49:07.543Z,4.40
2022-12-23T04:51:35.782Z,2.30
2022-12-23T04:54:04.093Z,2.50
2022-12-23T04:56:32.388Z,3.00
2022-12-23T04:59:00.584Z,4.00
2022-12-23T05:01:28.987Z,3.70
2022-12-23T05:03:57.986Z,3.40
2022-12-23T05:06:26.702Z,2.80
2022-12-23T05:08:54.882Z,3.90
2022-12-23T05:11:23.695Z,2.50
2022-12-23T05:13:51.847Z,4.90
2022-12-23T05:16:20.227Z,2.30
2022-12-23T05:18:49.019Z,3.00
2022-12-23T05:21:17.410Z,3.90
2022-12-23T05:23:45.669Z,2.50
2022-12-23T05:26:13.940Z,4.30
2022-12-23T05:28:42.157Z,3.80
2022-12-23T05:31:12.011Z,4.60
2022-12-23T05:33:41.372Z,4.10
2022-12-23T05:36:11.220Z,6.40
2022-12-23T05:38:39.538Z,4.50
2022-12-23T05:41:08.152Z,2.70
2022-12-23T05:43:36.376Z,2.80
2022-12-23T05:46:04.712Z,3.80
2022-12-23T05:48:32.949Z,5.60
2022-12-23T05:51:01.180Z,3.40
2022-12-23T05:53:29.447Z,2.50
2022-12-23T05:55:57.974Z,3.20
2022-12-23T05:58:26.148Z,1.70
2022-12-23T06:00:54.161Z,3.10
2022-12-23T06:03:23.141Z,2.60
2022-12-23T06:05:52.271Z,4.60
2022-12-23T06:08:20.981Z,1.80
2022-12-23T06:10:49.663Z,4.20
2022-12-23T06:13:17.863Z,2.70
2022-12-23T06:15:46.995Z,2.00
2022-12-23T06:18:15.467Z,1.90
2022-12-23T06:20:47.827Z,1.90
2022-12-23T06:23:16.099Z,1.80
2022-12-23T06:25:44.597Z,2.90
2022-12-23T06:28:12.956Z,2.00
2022-12-23T06:30:41.228Z,3.50
2022-12-23T06:33:09.472Z,1.80
2022-12-23T06:35:37.675Z,2.10
2022-12-23T06:38:11.845Z,1.50
2022-12-23T06:40:40.847Z,2.30
2022-12-23T06:43:09.174Z,1.10
2022-12-23T06:45:37.431Z,1.70
2022-12-23T06:48:06.523Z,1.80
2022-12-23T06:50:35.943Z,2.80
2022-12-23T06:53:04.702Z,2.60
2022-12-23T06:55:33.171Z,1.90
2022-12-23T06:58:01.726Z,1.10
2022-12-23T07:00:30.006Z,1.60
2022-12-23T07:02:58.331Z,1.10
2022-12-23T07:05:33.286Z,1.10
2022-12-23T07:08:05.880Z,1.60
2022-12-23T07:10:34.872Z,1.40
2022-12-23T07:13:03.267Z,1.40
2022-12-23T07:15:31.347Z,4.60
2022-12-23T07:17:59.552Z,2.90
2022-12-23T07:20:27.577Z,2.80
2022-12-23T07:22:55.974Z,3.90
2022-12-23T07:25:25.773Z,3.60
2022-12-23T07:27:54.929Z,1.80
2022-12-23T07:30:24.079Z,1.90
2022-12-23T07:32:52.939Z,1.70
2022-12-23T07:35:21.188Z,2.40
2022-12-23T07:37:56.719Z,1.90
2022-12-23T07:40:25.938Z,2.60
2022-12-23T07:42:59.331Z,1.90
2022-12-23T07:45:29.422Z,1.60
2022-12-23T07:48:00.145Z,1.80
2022-12-23T07:50:28.587Z,3.50
2022-12-23T07:52:57.108Z,2.00
2022-12-23T07:55:25.982Z,3.00
2022-12-23T07:57:54.149Z,2.60
2022-12-23T08:00:22.674Z,2.50
2022-12-23T08:02:51.081Z,4.00
2022-12-23T08:05:19.519Z,5.00
2022-12-23T08:07:47.806Z,3.70
2022-12-23T08:10:16.596Z,3.60
2022-12-23T08:12:44.838Z,3.70
2022-12-23T08:15:13.011Z,3.40
2022-12-23T08:17:42.644Z,3.30
2022-12-23T08:20:11.262Z,4.60
2022-12-23T08:22:39.773Z,3.20
2022-12-23T08:25:08.304Z,5.10
2022-12-23T08:27:36.546Z,6.10
2022-12-23T08:30:05.239Z,2.60
2022-12-23T08:32:33.462Z,3.60
2022-12-23T08:35:01.699Z,4.80
2022-12-23T08:37:29.982Z,31.70
2022-12-23T08:39:58.661Z,6.00
2022-12-23T08:42:26.831Z,2.80
2022-12-23T08:44:55.013Z,1.70
2022-12-23T08:47:23.405Z,4.30
2022-12-23T08:49:51.595Z,3.90
2022-12-23T08:52:19.773Z,3.70
2022-12-23T08:54:48.437Z,4.80
2022-12-23T08:57:18.021Z,5.10
2022-12-23T08:59:46.282Z,5.40
2022-12-23T09:02:14.681Z,3.20
2022-12-23T09:04:44.282Z,3.30
2022-12-23T09:07:12.502Z,2.70
2022-12-23T09:09:41.059Z,4.20
2022-12-23T09:12:09.371Z,5.10
2022-12-23T09:14:37.656Z,4.10
2022-12-23T09:17:06.264Z,3.50
2022-12-23T09:19:34.542Z,4.40
2022-12-23T09:22:02.718Z,4.90
2022-12-23T09:24:31.202Z,5.80
2022-12-23T09:26:59.602Z,5.40
2022-12-23T09:29:27.887Z,4.80
2022-12-23T09:31:56.285Z,9.00
2022-12-23T09:34:24.703Z,2.60
2022-12-23T09:36:55.393Z,4.80
2022-12-23T09:39:24.278Z,3.10
2022-12-23T09:42:05.617Z,5.10
2022-12-23T09:44:58.566Z,5.10
2022-12-23T09:47:28.701Z,4.20
2022-12-23T09:50:28.242Z,5.40
2022-12-23T09:53:00.816Z,4.60
2022-12-23T09:55:51.743Z,8.40
2022-12-23T09:58:37.012Z,3.70
2022-12-23T10:01:19.714Z,3.50
2022-12-23T10:03:54.074Z,4.20
2022-12-23T10:06:29.183Z,3.00
2022-12-23T10:09:01.555Z,4.60
2022-12-23T10:11:41.848Z,5.40
2022-12-23T10:14:25.378Z,4.10
2022-12-23T10:17:11.314Z,6.60
2022-12-23T10:19:45.765Z,3.70
2022-12-23T10:22:42.858Z,3.80
2022-12-23T10:25:38.648Z,3.90
2022-12-23T10:28:10.159Z,3.60
2022-12-23T10:31:23.861Z,2.70
2022-12-23T10:33:51.914Z,5.30
2022-12-23T10:36:35.173Z,3.80
2022-12-23T10:39:14.881Z,4.30
2022-12-23T10:42:20.300Z,2.80
2022-12-23T10:45:07.312Z,9.30
2022-12-23T10:47:55.337Z,5.10
2022-12-23T10:50:35.453Z,3.60
2022-12-23T10:53:08.990Z,4.20
2022-12-23T10:55:39.196Z,5.60
2022-12-23T10:58:17.921Z,7.10
2022-12-23T11:00:54.313Z,6.20
2022-12-23T11:03:27.204Z,4.10
2022-12-23T11:05:57.102Z,6.20
2022-12-23T11:08:29.342Z,3.40
2022-12-23T11:11:00.399Z,5.60
2022-12-23T11:13:39.916Z,5.00
2022-12-23T11:16:20.041Z,5.20
2022-12-23T11:19:00.351Z,4.60
2022-12-23T11:21:30.888Z,3.90
2022-12-23T11:24:20.029Z,5.30
2022-12-23T11:27:13.255Z,5.80
2022-12-23T11:29:48.331Z,6.10
2022-12-23T11:32:29.366Z,4.70
2022-12-23T11:34:57.745Z,2.80
2022-12-23T11:37:43.633Z,4.50
2022-12-23T11:40:46.095Z,4.40
2022-12-23T11:43:17.420Z,3.80
2022-12-23T11:45:45.686Z,4.80
2022-12-23T11:48:32.200Z,7.20
2022-12-23T11:51:03.144Z,5.10
2022-12-23T11:53:31.555Z,9.20
2022-12-23T11:56:04.447Z,3.70
2022-12-23T11:58:45.123Z,7.00
2022-12-23T12:01:19.868Z,5.60
2022-12-23T12:03:58.770Z,10.30
2022-12-23T12:06:28.703Z,3.90
2022-12-23T12:08:58.937Z,6.60
2022-12-23T12:11:49.408Z,6.00
2022-12-23T12:14:26.343Z,8.00
2022-12-23T12:17:18.455Z,5.30
2022-12-23T12:19:58.778Z,4.10
2022-12-23T12:25:23.946Z,7.80
2022-12-23T12:28:03.291Z,7.80
2022-12-23T12:30:40.856Z,5.60
2022-12-23T12:33:23.593Z,3.00
2022-12-23T12:36:03.329Z,7.90
2022-12-23T12:38:39.879Z,4.10
2022-12-23T12:41:27.043Z,7.40
2022-12-23T12:44:27.560Z,9.10
2022-12-23T12:47:28.495Z,6.10
2022-12-23T12:50:12.729Z,5.50
2022-12-23T12:52:42.868Z,4.40
2022-12-23T12:55:22.076Z,7.50
2022-12-23T12:57:50.453Z,4.30
2022-12-23T13:00:23.810Z,4.00
2022-12-23T13:03:23.119Z,5.30
2022-12-23T13:06:25.613Z,4.10
2022-12-23T13:09:31.571Z,5.20
2022-12-23T13:12:29.511Z,4.60
2022-12-23T13:15:28.949Z,4.00
2022-12-23T13:18:15.380Z,7.30
2022-12-23T13:20:54.695Z,3.90
2022-12-23T13:24:04.453Z,5.70
2022-12-23T13:26:39.621Z,4.70
2022-12-23T13:29:58.784Z,5.40
2022-12-23T13:32:37.547Z,6.20
2022-12-23T13:35:20.116Z,7.10
2022-12-23T13:37:59.326Z,6.90
2022-12-23T13:40:34.272Z,5.40
2022-12-23T13:43:29.009Z,5.30
2022-12-23T13:46:02.916Z,4.40
2022-12-23T13:48:45.307Z,7.40
2022-12-23T13:51:40.096Z,7.90
2022-12-23T13:54:32.119Z,6.00
2022-12-23T13:57:10.316Z,4.70
2022-12-23T13:59:44.657Z,9.00
2022-12-23T14:02:37.899Z,4.10
2022-12-23T14:05:27.043Z,5.40
2022-12-23T14:07:55.643Z,7.00
2022-12-23T14:10:25.395Z,6.50
2022-12-23T14:13:02.224Z,3.80
2022-12-23T14:15:59.598Z,4.50
2022-12-23T14:18:49.602Z,5.70
2022-12-23T14:21:36.430Z,4.60
2022-12-23T14:24:24.639Z,5.30
2022-12-23T14:30:05.954Z,6.50
2022-12-23T14:32:59.285Z,4.70
2022-12-23T14:35:27.735Z,6.90
2022-12-23T14:38:08.346Z,5.70
2022-12-23T14:40:39.829Z,4.80
2022-12-23T14:43:23.767Z,5.70
2022-12-23T14:45:53.875Z,7.00
2022-12-23T14:48:34.601Z,7.90
2022-12-23T14:51:23.448Z,9.60
2022-12-23T14:53:53.925Z,11.00
2022-12-23T14:56:28.458Z,10.40
2022-12-23T14:59:14.569Z,6.90
2022-12-23T15:01:47.144Z,5.80
2022-12-23T15:04:27.357Z,12.50
2022-12-23T15:07:04.144Z,7.50
2022-12-23T15:09:39.045Z,10.10
2022-12-23T15:12:16.954Z,9.10
2022-12-23T15:14:57.376Z,12.40
2022-12-23T15:17:33.027Z,8.70
2022-12-23T15:20:10.386Z,6.70
2022-12-23T15:25:36.287Z,7.20
2022-12-23T15:28:06.564Z,8.20
2022-12-23T15:30:49.296Z,7.80
2022-12-23T15:36:13.757Z,8.20
2022-12-23T15:38:42.264Z,11.80
2022-12-23T15:41:17.713Z,6.90
2022-12-23T15:43:46.403Z,10.60
2022-12-23T15:46:26.866Z,10.70
2022-12-23T15:48:58.511Z,6.80
2022-12-23T15:52:06.475Z,13.00
2022-12-23T15:54:35.514Z,8.20
2022-12-23T15:57:04.714Z,7.70
2022-12-23T15:59:38.835Z,7.80
2022-12-23T16:02:58.242Z,11.00
2022-12-23T16:05:08.427Z,12.30
2022-12-23T16:07:40.828Z,14.00
2022-12-23T16:10:20.847Z,9.90
2022-12-23T16:12:52.237Z,8.40
2022-12-23T16:15:33.595Z,12.50
2022-12-23T16:18:27.624Z,11.30
2022-12-23T16:21:01.932Z,17.40
2022-12-23T16:23:32.925Z,9.90
2022-12-23T16:26:02.592Z,10.90
2022-12-23T16:28:42.891Z,10.30
2022-12-23T16:31:14.771Z,15.70
2022-12-23T16:33:56.725Z,10.60
2022-12-23T16:36:28.146Z,13.80
2022-12-23T16:39:07.179Z,9.00
2022-12-23T16:41:36.211Z,8.20
2022-12-23T16:44:05.368Z,8.30
2022-12-23T16:46:37.881Z,13.60
2022-12-23T16:49:12.915Z,9.70
2022-12-23T16:51:41.525Z,11.70
2022-12-23T16:54:15.789Z,15.20
2022-12-23T16:56:45.460Z,12.00
2022-12-23T16:59:14.663Z,14.90
2022-12-23T17:01:46.335Z,10.60
2022-12-23T17:04:15.431Z,10.50
2022-12-23T17:06:43.720Z,9.90
2022-12-23T17:09:11.875Z,9.10
2022-12-23T17:11:51.020Z,9.50
2022-12-23T17:14:24.275Z,11.30
2022-12-23T17:16:52.777Z,11.70
2022-12-23T17:19:28.056Z,8.20
2022-12-23T17:22:03.037Z,7.60
2022-12-23T17:24:31.332Z,12.10
2022-12-23T17:26:59.605Z,7.40
2022-12-23T17:29:28.068Z,7.90
2022-12-23T17:31:56.250Z,10.90
2022-12-23T17:34:25.104Z,12.40
2022-12-23T17:36:54.936Z,12.30
2022-12-23T17:39:23.074Z,7.40
2022-12-23T17:41:51.704Z,8.20
2022-12-23T17:44:20.105Z,11.90
2022-12-23T17:46:48.568Z,11.60
2022-12-23T17:49:17.042Z,6.80
2022-12-23T17:51:46.633Z,9.00
2022-12-23T17:54:25.259Z,8.70
2022-12-23T17:56:53.751Z,10.70
2022-12-23T17:59:22.383Z,14.40
2022-12-23T18:01:50.856Z,9.60
2022-12-23T18:04:19.387Z,9.80
2022-12-23T18:06:47.560Z,12.70
2022-12-23T18:09:15.920Z,10.70
2022-12-23T18:11:47.145Z,8.60
2022-12-23T18:14:25.769Z,8.60
2022-12-23T18:16:54.289Z,12.40
2022-12-23T18:19:23.011Z,12.20
2022-12-23T18:21:51.815Z,8.70
2022-12-23T18:24:20.031Z,15.30
2022-12-23T18:26:48.218Z,13.90
2022-12-23T18:29:16.542Z,10.20
2022-12-23T18:31:52.288Z,11.70
2022-12-23T18:34:21.353Z,7.20
2022-12-23T18:36:49.857Z,8.00
2022-12-23T18:39:18.061Z,9.00
2022-12-23T18:41:46.449Z,10.40
2022-12-23T18:44:21.713Z,10.70
2022-12-23T18:46:50.389Z,11.40
2022-12-23T18:49:19.198Z,8.50
2022-12-23T18:51:48.090Z,8.10
2022-12-23T18:54:17.627Z,16.10
2022-12-23T18:56:45.871Z,9.10
2022-12-23T18:59:27.532Z,9.10
2022-12-23T19:01:58.003Z,11.20
2022-12-23T19:04:27.652Z,14.10
2022-12-23T19:06:56.894Z,9.50
2022-12-23T19:09:25.079Z,13.40
2022-12-23T19:11:53.714Z,13.10
2022-12-23T19:14:22.120Z,15.40
2022-12-23T19:16:52.209Z,20.20
2022-12-23T19:19:22.120Z,8.90
2022-12-23T19:21:50.383Z,18.50
2022-12-23T19:24:18.620Z,10.90
2022-12-23T19:26:48.214Z,11.00
2022-12-23T19:29:16.703Z,12.60
2022-12-23T19:31:44.874Z,11.30
2022-12-23T19:34:15.690Z,17.70
2022-12-23T19:36:44.525Z,14.60
2022-12-23T19:39:14.022Z,16.50
2022-12-23T19:41:42.569Z,18.80
2022-12-23T19:44:10.688Z,14.60
2022-12-23T19:46:39.115Z,18.60
2022-12-23T19:49:07.957Z,14.10
2022-12-23T19:51:37.367Z,13.10
2022-12-23T19:54:06.303Z,15.90
2022-12-23T19:56:35.180Z,18.40
2022-12-23T19:59:03.556Z,15.60
2022-12-23T20:01:32.263Z,15.90
2022-12-23T20:04:00.635Z,15.70
2022-12-23T20:06:32.549Z,19.20
2022-12-23T20:09:01.733Z,21.50
2022-12-23T20:11:35.501Z,14.30
2022-12-23T20:14:05.404Z,18.80
2022-12-23T20:16:34.799Z,15.90
2022-12-23T20:19:03.703Z,18.60
2022-12-23T20:21:32.486Z,17.00
2022-12-23T20:24:01.883Z,19.60
2022-12-23T20:26:32.519Z,18.60
2022-12-23T20:29:00.627Z,17.50
2022-12-23T20:31:32.098Z,24.70
2022-12-23T20:34:02.783Z,17.90
2022-12-23T20:36:34.290Z,15.90
2022-12-23T20:39:04.878Z,18.90
2022-12-23T20:41:33.361Z,20.00
2022-12-23T20:44:33.422Z,20.70
2022-12-23T20:46:50.699Z,20.90
2022-12-23T20:49:18.995Z,21.40
2022-12-23T20:51:47.193Z,20.80
2022-12-23T20:54:15.650Z,20.10
2022-12-23T20:56:43.946Z,25.60
2022-12-23T20:59:12.441Z,24.60
2022-12-23T21:01:41.380Z,19.00
2022-12-23T21:04:15.366Z,21.10
2022-12-23T21:06:44.908Z,28.60
2022-12-23T21:09:14.380Z,23.10
2022-12-23T21:11:45.688Z,28.50
2022-12-23T21:14:14.948Z,26.20
2022-12-23T21:16:43.601Z,22.60
2022-12-23T21:19:22.681Z,21.20
2022-12-23T21:21:52.002Z,20.60
2022-12-23T21:24:21.027Z,20.70
2022-12-23T21:26:56.021Z,22.80
2022-12-23T21:29:26.320Z,20.70
2022-12-23T21:31:54.803Z,20.40
2022-12-23T21:34:23.454Z,23.40
2022-12-23T21:36:54.190Z,21.40
2022-12-23T21:39:22.748Z,23.50
2022-12-23T21:41:51.148Z,20.50
2022-12-23T21:44:19.503Z,19.20
2022-12-23T21:46:50.680Z,18.50
2022-12-23T21:49:19.426Z,23.40
2022-12-23T21:51:47.799Z,17.90
2022-12-23T21:54:16.082Z,26.60
2022-12-23T21:56:44.931Z,24.50
2022-12-23T21:59:14.609Z,21.40
2022-12-23T22:01:44.124Z,18.90
2022-12-23T22:04:12.868Z,18.40
2022-12-23T22:06:42.998Z,18.60
2022-12-23T22:09:14.688Z,18.80
2022-12-23T22:11:43.175Z,21.60
2022-12-23T22:14:15.169Z,27.10
2022-12-23T22:16:43.642Z,23.20
2022-12-23T22:19:12.406Z,17.70
2022-12-23T22:21:40.577Z,16.30
2022-12-23T22:24:09.004Z,19.20
2022-12-23T22:26:37.430Z,14.20
2022-12-23T22:29:06.359Z,12.50
2022-12-23T22:31:38.486Z,15.00
2022-12-23T22:34:08.395Z,15.20
2022-12-23T22:36:36.735Z,15.60
2022-12-23T22:39:07.854Z,12.60
2022-12-23T22:41:36.630Z,11.40
2022-12-23T22:44:04.958Z,15.00
2022-12-23T22:46:33.456Z,23.90
2022-12-23T22:49:03.053Z,12.50
2022-12-23T22:51:32.145Z,14.00
2022-12-23T22:54:03.314Z,12.60
2022-12-23T22:56:32.817Z,19.10
2022-12-23T22:59:01.086Z,15.90
2022-12-23T23:01:32.827Z,18.20
2022-12-23T23:04:03.144Z,10.70
2022-12-23T23:06:34.860Z,14.10
2022-12-23T23:09:03.648Z,11.00
2022-12-23T23:11:31.827Z,14.70
2022-12-23T23:14:00.781Z,19.20
2022-12-23T23:16:29.996Z,16.50
2022-12-23T23:18:58.261Z,13.40
2022-12-23T23:21:28.925Z,13.20
2022-12-23T23:23:58.046Z,18.20
2022-12-23T23:26:27.013Z,11.40
2022-12-23T23:28:56.606Z,14.10
2022-12-23T23:31:41.934Z,15.30
2022-12-23T23:34:12.953Z,13.00
2022-12-23T23:36:41.337Z,12.80
2022-12-23T23:39:12.289Z,14.00
2022-12-23T23:41:40.629Z,15.90
2022-12-23T23:44:09.841Z,13.10
2022-12-23T23:46:39.674Z,12.60
2022-12-23T23:49:07.920Z,11.80
2022-12-23T23:51:36.079Z,12.80
2022-12-23T23:54:04.524Z,13.20
2022-12-23T23:56:38.259Z,15.20
2022-12-23T23:59:08.916Z,12.80
